This is the latest recevied weather packets stored in our database for station/object 9M4RBN-3. If no packets are shown the sender has not sent any weather packets the latest 10 day(s).
| Time | Temp. | Humidity | Pressure | Rain* | Wind** | Luminosity | Snow |
|---|---|---|---|---|---|---|---|
| 1788041051 | 24.44° C | 60% | 1017 hPa | - | - | - | - |
| 1788040151 | 23.89° C | 45% | 1017.1 hPa | - | - | - | - |
| 1788039251 | 24.44° C | 44% | 1017.2 hPa | - | - | - | - |
| 1788038351 | 24.44° C | 45% | 1017.2 hPa | - | - | - | - |
| 1788037451 | 25° C | 46% | 1017.3 hPa | - | - | - | - |
| 1788036551 | 25.56° C | 47% | 1017.1 hPa | - | - | - | - |
| 1788035651 | 26.11° C | 50% | 1017.4 hPa | - | - | - | - |
| 1788034751 | 27.22° C | 58% | 1017.5 hPa | - | - | - | - |
| 1788033851 | 27.78° C | 71% | 1017.5 hPa | - | - | - | - |
| 1788032951 | 27.78° C | 70% | 1017.6 hPa | - | - | - | - |
| 1788032051 | 27.78° C | 70% | 1017.7 hPa | - | - | - | - |
| 1788031151 | 27.78° C | 69% | 1018 hPa | - | - | - | - |
| 1788030251 | 27.78° C | 70% | 1018 hPa | - | - | - | - |
| 1788029351 | 27.78° C | 70% | 1018.1 hPa | - | - | - | - |
| 1788028451 | 27.78° C | 69% | 1017.7 hPa | - | - | - | - |
| 1788027550 | 27.78° C | 69% | 1017.7 hPa | - | - | - | - |
| 1788026650 | 27.78° C | 67% | 1017.7 hPa | - | - | - | - |
| 1788025750 | 27.78° C | 67% | 1017.9 hPa | - | - | - | - |
| 1788024850 | 27.78° C | 65% | 1017.9 hPa | - | - | - | - |
| 1788023950 | 27.22° C | 64% | 1017.9 hPa | - | - | - | - |
| 1788023050 | 27.22° C | 63% | 1017.9 hPa | - | - | - | - |
| 1788022150 | 26.67° C | 61% | 1017.9 hPa | - | - | - | - |
| 1788021250 | 26.67° C | 59% | 1017.9 hPa | - | - | - | - |
| 1788020350 | 25.56° C | 53% | 1017.9 hPa | - | - | - | - |
| 1788019450 | 25° C | 46% | 1017.9 hPa | - | - | - | - |
* Rain since midnight (hover to see other rain measurements)
** Current wind speed in m/s (hover to see current wind gust speed)